KFKL

Venango Regional Airport

Franklin, Pennsylvania, USA
KFKL 141730Z 1418/1518 17009KT P6SM BKN050 FM142300 16005KT P6SM VCSH OVC045 FM150300 13004KT P6SM -RA OVC030 FM150800 06004KT P6SM VCSH OVC020
Issued Valid From Valid To
Dec-14 @ 17:30 UTC
(4 hours ago)
Dec-14 @ 18:00 UTC
(4 hours ago)
Dec-15 @ 18:00 UTC
(in 20 hours)
Dec-14 @ 18:00 to Dec-14 @ 23:00
KFKL 141730Z 1418/1518 17009KT P6SM BKN050
Wind Visibility Clouds
170° at 9 knots Greater than 6 miles
  • Broken at 5,000' AGL
From Dec-14 @ 23:00 to Dec-15 @ 03:00
FM142300 16005KT P6SM VCSH OVC045
Wind Visibility Clouds
160° at 5 knots Greater than 6 miles
  • Overcast at 4,500' AGL
From Dec-15 @ 03:00 to Dec-15 @ 08:00
FM150300 13004KT P6SM -RA OVC030
Wind Visibility Clouds Conditions
130° at 4 knots Greater than 6 miles
  • Overcast at 3,000' AGL
  • Light Rain
From Dec-15 @ 08:00 to Dec-15 @ 18:00
FM150800 06004KT P6SM VCSH OVC020
Wind Visibility Clouds
60° at 4 knots Greater than 6 miles
  • Overcast at 2,000' AGL
KFKL 141730Z 1418/1518 17009KT P6SM BKN050 FM142300 16005KT P6SM VCSH OVC045 FM150300 13004KT P6SM -RA OVC030 FM150800 06004KT P6SM VCSH OVC020
Issued Dec-14 @ 17:30 UTC
(4 hours ago)
Valid From Dec-14 @ 18:00 UTC
(4 hours ago)
Valid To Dec-15 @ 18:00 UTC
(in 20 hours)
Dec-14 @ 18:00 - Dec-14 @ 23:00
Wind Visibility
170° at 9 knots Greater than 6 miles
Clouds
  • Broken at 5,000' AGL
From Dec-14 @ 23:00 - Dec-15 @ 03:00
Wind Visibility
160° at 5 knots Greater than 6 miles
Clouds
  • Overcast at 4,500' AGL
From Dec-15 @ 03:00 - Dec-15 @ 08:00
Wind Visibility
130° at 4 knots Greater than 6 miles
Clouds
  • Overcast at 3,000' AGL
Conditions
  • Light Rain
From Dec-15 @ 08:00 - Dec-15 @ 18:00
Wind Visibility
60° at 4 knots Greater than 6 miles
Clouds
  • Overcast at 2,000' AGL